PWSweather.com
Personal Weather Stations
Station Observations
FEDE1991
Gimnasia, ChivilcoyAR

GimnasiaChivilcoyAR

Lat: -34.8841772, Lon: -60.0315799

Elevation: 36

Station Type: WH1081

http://climachivilcoy.blogspot.com.ar/

Latest ConditionsUpdated 3:14:58 AM GMT-03:57 Thursday, Mar 21, 2019
Currently Today's Max Today's Min Today's Average
Temperature 52.3°F11.3°C 55.0°F12.8°C 51.4°F10.8°C 52.8°F11.6°C
Dew Point 51.8°F11.0°C 51.8°F11.0°C 50.0°F10.0°C 50.8°F10.4°C
Winds 1.6 mph SE2.6 kmh SE 2.2 mph -3.5 kmh - - 1.8 mph 2.9 kmh
Wind Gusts 5.4 mph8.7 kmh 5.4 mph8.7 kmh - -
Humidity 98% 98% 87% 93%
Pressure 30.00 in1015.9 mb 30.04 in1017.3 mb 30.00 in1015.9 mb -
Hour Temp Dew Point Humidity Winds Wind Gusts Pressure Precip Precip Rate Daily Precip Total
03:14 AM 52.3°F11.3°C 51.8°F11.0°C 98% 1.6 mph SE2.6 kmh SE 5.4 mph8.7 kmh 30.00 in1015.9 mb 0.00 in0.0 mm 0.00 in0.0 mm 0.00 in0.0 mm
03:04 AM 52.2°F11.2°C 51.6°F10.9°C 98% 2.2 mph SE3.5 kmh SE -- 30.01 in1016.3 mb 0.00 in0.0 mm 0.00 in0.0 mm 0.00 in0.0 mm
03:02 AM 52.2°F11.2°C 51.6°F10.9°C 98% 2.2 mph SE3.5 kmh SE -- 30.01 in1016.3 mb 0.00 in0.0 mm 0.00 in0.0 mm 0.00 in0.0 mm
02:59 AM 51.8°F11.0°C 51.3°F10.7°C 98% 2.2 mph SE3.5 kmh SE 4.5 mph7.2 kmh 30.01 in1016.3 mb 0.00 in0.0 mm 0.00 in0.0 mm 0.00 in0.0 mm
02:49 AM 51.4°F10.8°C 50.5°F10.3°C 97% 0.7 mph S1.1 kmh S 3.8 mph6.1 kmh 30.01 in1016.3 mb 0.00 in0.0 mm 0.00 in0.0 mm 0.00 in0.0 mm
02:39 AM 51.6°F10.9°C 50.5°F10.3°C 96% 1.6 mph SW2.6 kmh SW 3.1 mph5.0 kmh 30.02 in1016.6 mb 0.00 in0.0 mm 0.00 in0.0 mm 0.00 in0.0 mm
02:29 AM 52.0°F11.1°C 50.9°F10.5°C 96% 1.6 mph SW2.6 kmh SW 3.1 mph5.0 kmh 30.02 in1016.6 mb 0.00 in0.0 mm 0.00 in0.0 mm 0.00 in0.0 mm
02:18 AM 52.3°F11.3°C 51.3°F10.7°C 96% 1.6 mph SW2.6 kmh SW 3.1 mph5.0 kmh 30.03 in1016.9 mb 0.00 in0.0 mm 0.00 in0.0 mm 0.00 in0.0 mm
02:08 AM 52.5°F11.4°C 51.4°F10.8°C 96% 1.6 mph S2.6 kmh S 4.5 mph7.2 kmh 30.03 in1016.9 mb 0.00 in0.0 mm 0.00 in0.0 mm 0.00 in0.0 mm
01:58 AM 52.3°F11.3°C 50.9°F10.5°C 95% 2.2 mph S3.5 kmh S 4.5 mph7.2 kmh 30.03 in1016.9 mb 0.00 in0.0 mm 0.00 in0.0 mm 0.00 in0.0 mm
01:48 AM 52.3°F11.3°C 50.7°F10.4°C 94% 2.2 mph SW3.5 kmh SW 3.8 mph6.1 kmh 30.03 in1016.9 mb 0.00 in0.0 mm 0.00 in0.0 mm 0.00 in0.0 mm
01:38 AM 52.2°F11.2°C 50.2°F10.1°C 93% 1.6 mph SW2.6 kmh SW 3.8 mph6.1 kmh 30.03 in1016.9 mb 0.00 in0.0 mm 0.00 in0.0 mm 0.00 in0.0 mm
01:28 AM 52.3°F11.3°C 50.0°F10.0°C 92% 2.2 mph SW3.5 kmh SW 3.8 mph6.1 kmh 30.03 in1016.9 mb 0.00 in0.0 mm 0.00 in0.0 mm 0.00 in0.0 mm
01:18 AM 52.9°F11.6°C 50.5°F10.3°C 92% 1.6 mph SW2.6 kmh SW 3.1 mph5.0 kmh 30.03 in1016.9 mb 0.00 in0.0 mm 0.00 in0.0 mm 0.00 in0.0 mm
01:08 AM 53.2°F11.8°C 50.7°F10.4°C 91% 1.6 mph S2.6 kmh S 4.5 mph7.2 kmh 30.03 in1016.9 mb 0.00 in0.0 mm 0.00 in0.0 mm 0.00 in0.0 mm
12:58 AM 53.4°F11.9°C 50.9°F10.5°C 91% 2.2 mph SW3.5 kmh SW 3.8 mph6.1 kmh 30.03 in1016.9 mb 0.00 in0.0 mm 0.00 in0.0 mm 0.00 in0.0 mm
12:47 AM 53.4°F11.9°C 50.2°F10.1°C 89% 0.7 mph S1.1 kmh S 3.8 mph6.1 kmh 30.04 in1017.3 mb 0.00 in0.0 mm 0.00 in0.0 mm 0.00 in0.0 mm
12:37 AM 53.8°F12.1°C 50.4°F10.2°C 88% 2.2 mph S3.5 kmh S 3.8 mph6.1 kmh 30.04 in1017.3 mb 0.00 in0.0 mm 0.00 in0.0 mm 0.00 in0.0 mm
12:27 AM 54.0°F12.2°C 50.2°F10.1°C 87% 1.6 mph SW2.6 kmh SW 4.5 mph7.2 kmh 30.04 in1017.3 mb 0.00 in0.0 mm 0.00 in0.0 mm 0.00 in0.0 mm
12:17 AM 54.7°F12.6°C 50.9°F10.5°C 87% 2.2 mph S3.5 kmh S 5.4 mph8.7 kmh 30.04 in1017.3 mb 0.00 in0.0 mm 0.00 in0.0 mm 0.00 in0.0 mm
12:07 AM 55.0°F12.8°C 51.3°F10.7°C 87% 2.2 mph S3.5 kmh S 4.5 mph7.2 kmh 30.04 in1017.3 mb 0.00 in0.0 mm 0.00 in0.0 mm 0.00 in0.0 mm